Time;durP1;ratioP1;P1;durP2;ratioP2;P2;SDS_P1;SDS_P2;PMS_P1;PMS_P2;Temp;Humidity;BMP_temperature;BMP_pressure;BME280_temperature;BME280_humidity;BME280_pressure;Samples;Min_cycle;Max_cycle;Signal;HPM_P1;HPM_P2
2023/08/03 00:01:52;;;;;;;1.00;0.63;;;20.80;74.70;;;;;;10323371;28;20057;-58
2023/08/03 00:06:53;;;;;;;2.45;0.80;;;20.80;74.70;;;;;;10323461;28;20022;-58
2023/08/03 00:11:53;;;;;;;1.67;0.63;;;20.80;74.70;;;;;;10334978;28;20452;-58
2023/08/03 00:16:54;;;;;;;2.80;0.90;;;20.80;74.70;;;;;;10349380;28;20223;-58
2023/08/03 00:21:55;;;;;;;2.38;0.82;;;20.80;74.70;;;;;;10363534;28;20457;-58
2023/08/03 00:26:56;;;;;;;2.67;0.80;;;20.80;74.70;;;;;;10361975;28;20014;-57
2023/08/03 00:31:59;;;;;;;3.60;0.85;;;20.80;74.70;;;;;;10363410;28;20022;-57
2023/08/03 00:37:00;;;;;;;2.45;0.50;;;20.80;74.70;;;;;;10362108;28;20037;-58
2023/08/03 00:42:00;;;;;;;1.33;0.82;;;20.80;74.70;;;;;;10361637;28;20374;-58
2023/08/03 00:47:01;;;;;;;2.40;0.70;;;20.80;74.70;;;;;;10363067;28;20026;-57
2023/08/03 00:52:02;;;;;;;2.15;0.88;;;20.80;74.70;;;;;;10361671;28;20742;-58
2023/08/03 00:57:04;;;;;;;1.45;0.63;;;20.80;74.70;;;;;;10369195;28;20109;-58
2023/08/03 01:02:05;;;;;;;0.90;0.50;;;20.80;74.70;;;;;;10385794;28;20033;-58
2023/08/03 01:07:06;;;;;;;1.80;0.90;;;20.80;74.70;;;;;;10369934;28;20097;-57
2023/08/03 01:12:08;;;;;;;1.90;0.70;;;20.80;74.80;;;;;;10340945;28;20026;-58
2023/08/03 01:17:08;;;;;;;1.23;0.70;;;20.80;74.80;;;;;;10358368;28;20021;-58
2023/08/03 01:22:12;;;;;;;0.93;0.57;;;20.80;74.80;;;;;;10368407;28;20393;-58
2023/08/03 01:27:12;;;;;;;2.40;0.70;;;20.70;74.80;;;;;;10369636;28;20025;-58
2023/08/03 01:32:13;;;;;;;3.55;0.75;;;20.80;74.80;;;;;;10368996;28;20050;-57
2023/08/03 01:37:14;;;;;;;2.45;0.63;;;20.80;74.80;;;;;;10368218;28;20034;-58
2023/08/03 01:42:14;;;;;;;0.95;0.60;;;20.70;74.70;;;;;;10367543;28;20389;-57
2023/08/03 01:47:15;;;;;;;1.40;0.85;;;20.80;74.70;;;;;;10367681;28;20061;-58
2023/08/03 01:52:16;;;;;;;1.45;0.60;;;20.70;74.70;;;;;;10368631;28;20026;-58
2023/08/03 01:57:19;;;;;;;2.20;0.80;;;20.70;74.70;;;;;;10368468;28;20028;-57
2023/08/03 02:02:20;;;;;;;1.17;0.50;;;20.70;74.70;;;;;;10368218;28;20120;-56
2023/08/03 02:07:45;;;;;;;1.45;0.73;;;20.70;74.70;;;;;;10367565;28;20029;-57
2023/08/03 02:12:47;;;;;;;2.83;0.90;;;20.70;74.70;;;;;;10334423;28;20021;-58
2023/08/03 02:17:47;;;;;;;1.63;0.80;;;20.70;74.80;;;;;;10361876;28;20072;-58
2023/08/03 02:22:48;;;;;;;2.10;0.82;;;20.70;74.80;;;;;;10367256;28;20124;-58
2023/08/03 02:27:50;;;;;;;1.08;0.70;;;20.70;74.70;;;;;;10367180;28;20418;-58
2023/08/03 02:32:51;;;;;;;3.00;0.80;;;20.70;74.80;;;;;;10367738;28;20045;-58
2023/08/03 02:37:51;;;;;;;1.00;0.50;;;20.70;74.70;;;;;;10366707;28;20753;-58
2023/08/03 02:42:52;;;;;;;1.67;1.17;;;20.70;74.80;;;;;;10366376;28;20133;-58
2023/08/03 02:47:53;;;;;;;0.90;0.70;;;20.70;74.70;;;;;;10366419;28;20105;-58
2023/08/03 02:52:53;;;;;;;1.23;0.60;;;20.70;74.80;;;;;;10366145;28;20105;-58
2023/08/03 02:57:54;;;;;;;1.58;0.80;;;20.70;74.80;;;;;;10366152;28;20922;-58
2023/08/03 03:02:54;;;;;;;1.50;0.57;;;20.70;74.80;;;;;;10365734;28;20076;-57
2023/08/03 03:07:57;;;;;;;1.77;0.90;;;20.70;74.80;;;;;;10365523;28;20045;-58
2023/08/03 03:12:57;;;;;;;1.55;0.60;;;20.70;74.80;;;;;;10331147;28;20022;-58
2023/08/03 03:17:58;;;;;;;2.22;0.98;;;20.70;74.80;;;;;;10359606;28;20085;-57
2023/08/03 03:22:59;;;;;;;1.98;0.70;;;20.70;74.80;;;;;;10363471;28;20679;-57
2023/08/03 03:28:04;;;;;;;2.00;0.70;;;20.70;74.80;;;;;;10359506;28;20026;-58
2023/08/03 03:33:05;;;;;;;1.75;0.93;;;20.70;74.80;;;;;;10357772;28;20021;-56
2023/08/03 03:38:05;;;;;;;1.83;0.85;;;20.80;74.80;;;;;;10355553;28;20022;-56
2023/08/03 03:43:06;;;;;;;2.15;0.95;;;20.80;75.50;;;;;;10355157;28;20115;-56
2023/08/03 03:48:07;;;;;;;1.70;0.88;;;20.80;75.10;;;;;;10319890;28;20041;-57
2023/08/03 03:53:07;;;;;;;1.23;0.63;;;20.80;74.40;;;;;;10321036;28;20150;-56
2023/08/03 03:58:08;;;;;;;1.52;0.75;;;20.70;74.50;;;;;;10320271;28;20110;-56
2023/08/03 04:03:09;;;;;;;1.25;0.70;;;20.70;74.80;;;;;;10320308;28;20121;-57
2023/08/03 04:08:10;;;;;;;1.20;0.63;;;20.70;74.90;;;;;;10329115;28;20053;-55
2023/08/03 04:13:11;;;;;;;2.13;1.17;;;20.70;74.90;;;;;;10343524;28;20546;-57
2023/08/03 04:18:11;;;;;;;2.75;0.80;;;20.70;75.00;;;;;;10357822;28;20026;-56
2023/08/03 04:23:12;;;;;;;2.75;1.02;;;20.70;75.00;;;;;;10333263;28;20184;-56
2023/08/03 04:28:13;;;;;;;4.28;0.80;;;20.60;75.00;;;;;;10352696;28;20034;-56
2023/08/03 04:33:14;;;;;;;2.20;0.80;;;20.60;75.00;;;;;;10344102;28;20440;-57
2023/08/03 04:38:14;;;;;;;4.00;0.98;;;20.70;75.00;;;;;;10371131;28;20037;-56
2023/08/03 04:43:15;;;;;;;2.58;1.15;;;20.60;75.00;;;;;;10371558;28;20562;-56
2023/08/03 04:48:16;;;;;;;1.88;1.10;;;20.60;75.00;;;;;;10371373;28;20050;-56
2023/08/03 04:53:16;;;;;;;1.50;0.65;;;20.60;75.10;;;;;;10350100;28;20066;-57
2023/08/03 04:58:17;;;;;;;3.25;1.05;;;20.60;75.10;;;;;;10335496;28;20361;-56
2023/08/03 05:03:18;;;;;;;2.55;1.20;;;20.70;75.20;;;;;;10334243;28;20041;-57
2023/08/03 05:08:22;;;;;;;2.75;0.98;;;20.70;74.70;;;;;;10350268;28;20026;-55
2023/08/03 05:13:23;;;;;;;2.65;0.70;;;20.70;75.30;;;;;;10331016;28;20023;-56
2023/08/03 05:18:23;;;;;;;5.38;1.25;;;20.80;75.40;;;;;;10366816;28;20117;-55
2023/08/03 05:23:24;;;;;;;4.93;0.95;;;20.90;75.80;;;;;;10368159;28;20022;-55
2023/08/03 05:28:25;;;;;;;4.38;0.93;;;20.90;75.20;;;;;;10368041;28;20014;-56
2023/08/03 05:33:27;;;;;;;7.55;1.23;;;20.90;75.00;;;;;;10351401;28;20030;-57
2023/08/03 05:38:27;;;;;;;4.35;0.90;;;20.90;75.10;;;;;;10327126;28;20018;-56
2023/08/03 05:43:28;;;;;;;8.00;1.00;;;20.90;75.40;;;;;;10326141;28;20054;-56
2023/08/03 05:48:30;;;;;;;4.43;1.05;;;21.00;75.40;;;;;;10338541;28;20105;-56
2023/08/03 05:53:32;;;;;;;5.38;1.10;;;21.00;75.50;;;;;;10344541;28;20026;-57
2023/08/03 05:58:36;;;;;;;8.45;1.45;;;21.10;75.50;;;;;;10336374;28;20027;-57
2023/08/03 06:03:46;;;;;;;6.25;0.93;;;21.20;75.50;;;;;;10326370;28;20026;-57
2023/08/03 06:08:56;;;;;;;3.88;1.17;;;21.20;75.50;;;;;;10338036;28;20026;-57
2023/08/03 06:13:57;;;;;;;6.00;1.55;;;21.10;75.70;;;;;;10350654;28;20026;-56
2023/08/03 06:19:01;;;;;;;10.15;1.75;;;21.20;76.10;;;;;;10353594;28;20160;-57
2023/08/03 06:24:03;;;;;;;10.98;2.38;;;21.20;75.80;;;;;;10366582;28;20018;-56
2023/08/03 06:29:05;;;;;;;7.20;1.50;;;21.30;75.80;;;;;;10329660;28;20026;-58
2023/08/03 06:34:11;;;;;;;4.78;1.75;;;21.30;76.00;;;;;;10336934;28;20126;-56
2023/08/03 06:39:12;;;;;;;12.23;3.20;;;21.30;75.80;;;;;;10323101;28;20215;-56
2023/08/03 06:44:13;;;;;;;5.82;1.42;;;21.30;75.90;;;;;;10325084;28;20023;-56
2023/08/03 06:49:13;;;;;;;6.47;1.77;;;21.30;75.90;;;;;;10335763;28;20032;-57
2023/08/03 06:54:14;;;;;;;8.85;1.48;;;21.30;75.70;;;;;;10323798;28;20032;-57
2023/08/03 06:59:20;;;;;;;9.05;1.45;;;21.30;75.90;;;;;;10335746;28;20089;-56
2023/08/03 07:04:21;;;;;;;13.13;1.73;;;21.40;76.00;;;;;;10323375;28;20023;-56
2023/08/03 07:09:22;;;;;;;8.57;1.42;;;21.30;75.80;;;;;;10335725;28;20114;-57
2023/08/03 07:14:22;;;;;;;9.23;1.50;;;21.30;76.00;;;;;;10340392;28;20020;-55
2023/08/03 07:19:23;;;;;;;8.40;2.05;;;21.30;75.90;;;;;;10335514;28;20393;-56
2023/08/03 07:24:27;;;;;;;9.52;1.63;;;21.30;76.10;;;;;;10323339;28;20486;-56
2023/08/03 07:29:29;;;;;;;5.65;1.33;;;21.30;75.70;;;;;;10346634;28;20056;-57
2023/08/03 07:34:30;;;;;;;6.82;1.80;;;21.30;75.90;;;;;;10363089;28;20424;-56
2023/08/03 07:39:32;;;;;;;11.10;1.02;;;21.30;75.50;;;;;;10340592;28;20506;-55
2023/08/03 07:44:32;;;;;;;10.73;2.15;;;21.40;76.00;;;;;;10321831;28;20026;-56
2023/08/03 07:49:33;;;;;;;14.15;1.77;;;21.40;76.20;;;;;;10322376;28;20062;-56
2023/08/03 07:54:34;;;;;;;4.28;1.30;;;21.40;76.30;;;;;;10334117;28;20073;-57
2023/08/03 07:59:34;;;;;;;2.95;1.35;;;21.40;76.40;;;;;;10321787;28;20035;-57
2023/08/03 08:04:35;;;;;;;7.40;1.95;;;21.40;76.30;;;;;;10328917;28;20042;-57
2023/08/03 08:09:36;;;;;;;9.75;1.60;;;21.40;76.30;;;;;;10354961;28;20104;-55
2023/08/03 08:14:36;;;;;;;11.32;2.03;;;21.40;76.30;;;;;;10342668;28;21816;-57
2023/08/03 08:19:37;;;;;;;9.57;1.83;;;21.40;76.30;;;;;;10344724;28;20106;-55
2023/08/03 08:24:38;;;;;;;12.35;1.50;;;21.40;76.40;;;;;;10340622;28;20041;-57
2023/08/03 08:29:39;;;;;;;5.00;1.52;;;21.40;76.30;;;;;;10339384;28;20053;-57
2023/08/03 08:34:39;;;;;;;9.75;2.65;;;21.40;76.30;;;;;;10334732;28;20164;-57
2023/08/03 08:39:40;;;;;;;5.93;1.38;;;21.30;76.30;;;;;;10343015;28;20117;-57
2023/08/03 08:44:41;;;;;;;10.88;1.48;;;21.30;76.40;;;;;;10339107;28;20057;-56
2023/08/03 08:49:41;;;;;;;5.47;1.27;;;21.30;76.30;;;;;;10343234;28;20551;-56
2023/08/03 08:54:42;;;;;;;10.95;1.60;;;21.30;76.40;;;;;;10334626;28;20134;-56
2023/08/03 09:00:05;;;;;;;6.28;1.50;;;21.30;76.30;;;;;;10344641;28;20068;-56
2023/08/03 09:05:14;;;;;;;4.15;1.83;;;21.30;76.40;;;;;;10371823;28;20342;-56
2023/08/03 09:10:15;;;;;;;6.17;2.07;;;21.30;76.50;;;;;;10369542;28;20014;-56
2023/08/03 09:15:16;;;;;;;7.60;1.92;;;21.30;76.50;;;;;;10355517;28;20079;-57
2023/08/03 09:20:27;;;;;;;16.55;2.85;;;21.60;78.80;;;;;;10367939;28;20038;-55
2023/08/03 09:25:28;;;;;;;11.43;1.90;;;21.70;77.50;;;;;;10362690;28;20022;-56
2023/08/03 09:30:29;;;;;;;11.00;2.25;;;22.00;77.50;;;;;;10326276;28;20031;-56
2023/08/03 09:35:29;;;;;;;16.85;2.20;;;21.90;77.20;;;;;;10326720;28;20062;-56
2023/08/03 09:40:45;;;;;;;12.23;2.25;;;21.80;77.30;;;;;;10338892;28;20129;-56
2023/08/03 09:45:46;;;;;;;14.15;2.83;;;21.70;77.70;;;;;;10326376;28;20046;-57
2023/08/03 09:50:53;;;;;;;13.30;2.25;;;21.70;77.80;;;;;;10336888;28;20019;-57
2023/08/03 09:56:00;;;;;;;12.00;2.80;;;21.70;77.80;;;;;;10349499;28;20045;-57
2023/08/03 10:01:04;;;;;;;24.05;3.50;;;21.60;77.50;;;;;;10364876;28;20030;-57
2023/08/03 10:06:13;;;;;;;33.28;3.78;;;21.50;78.00;;;;;;10346032;28;20022;-56
2023/08/03 10:11:14;;;;;;;15.18;2.65;;;21.60;77.80;;;;;;10350707;28;20569;-57
2023/08/03 10:16:16;;;;;;;27.35;3.22;;;21.80;77.70;;;;;;10345378;28;20033;-57
2023/08/03 10:21:17;;;;;;;13.77;3.67;;;21.80;77.30;;;;;;10355492;28;20031;-57
2023/08/03 10:26:24;;;;;;;16.20;3.28;;;21.80;77.60;;;;;;10345470;28;20405;-57
2023/08/03 10:31:25;;;;;;;12.05;3.33;;;21.80;77.60;;;;;;10353923;28;20025;-56
2023/08/03 10:36:29;;;;;;;15.15;2.50;;;21.80;77.50;;;;;;10325423;28;20033;-56
2023/08/03 10:41:36;;;;;;;11.70;2.63;;;21.80;77.60;;;;;;10338557;28;20051;-55
2023/08/03 10:46:42;;;;;;;15.38;3.63;;;21.90;77.60;;;;;;10326827;28;20112;-56
2023/08/03 10:52:18;;;;;;;13.65;2.65;;;21.80;77.30;;;;;;10363081;28;20055;-56
2023/08/03 10:57:29;;;;;;;14.13;2.22;;;21.70;77.60;;;;;;10351028;28;20045;-56
2023/08/03 11:02:33;;;;;;;21.75;2.53;;;21.70;77.60;;;;;;10359817;28;20033;-56
2023/08/03 11:07:45;;;;;;;19.00;4.30;;;21.70;77.70;;;;;;10347652;28;20026;-56
2023/08/03 11:12:48;;;;;;;9.63;2.45;;;21.60;77.70;;;;;;10349908;28;20018;-56
2023/08/03 11:17:49;;;;;;;12.98;2.80;;;21.50;78.30;;;;;;10342092;28;20026;-57
2023/08/03 11:22:50;;;;;;;16.13;3.17;;;21.50;78.20;;;;;;10357519;28;20121;-57
2023/08/03 11:27:51;;;;;;;8.35;2.92;;;21.50;78.50;;;;;;10345932;28;20026;-57
2023/08/03 11:32:59;;;;;;;7.45;2.42;;;21.40;78.50;;;;;;10360936;28;20026;-57
2023/08/03 11:38:00;;;;;;;11.27;2.67;;;21.50;79.20;;;;;;10354353;28;20041;-56
2023/08/03 11:43:01;;;;;;;8.85;3.08;;;21.50;78.90;;;;;;10341688;28;20390;-56
2023/08/03 11:48:02;;;;;;;10.95;2.65;;;21.40;79.00;;;;;;10341409;28;20018;-56
2023/08/03 11:53:03;;;;;;;10.50;2.70;;;21.40;79.20;;;;;;10352765;28;20025;-57
2023/08/03 11:58:10;;;;;;;7.93;3.22;;;21.40;79.00;;;;;;10353692;28;20653;-57
2023/08/03 12:03:17;;;;;;;7.15;2.88;;;21.40;79.00;;;;;;10349519;28;20029;-57
2023/08/03 12:08:21;;;;;;;11.30;2.65;;;21.40;79.20;;;;;;10346637;28;20112;-57
2023/08/03 12:13:21;;;;;;;14.05;2.60;;;21.40;79.20;;;;;;10346311;28;20022;-56
2023/08/03 12:18:23;;;;;;;16.75;2.95;;;21.50;79.30;;;;;;10348991;28;20030;-58
2023/08/03 12:23:24;;;;;;;10.98;2.55;;;21.60;78.70;;;;;;10360968;28;20061;-57
2023/08/03 12:28:25;;;;;;;19.90;2.55;;;21.70;78.40;;;;;;10356364;28;20029;-57
2023/08/03 12:33:26;;;;;;;8.38;2.20;;;21.50;78.50;;;;;;10349774;28;20022;-58
2023/08/03 12:38:26;;;;;;;13.13;3.20;;;21.40;78.50;;;;;;10343221;28;20113;-58
2023/08/03 12:43:27;;;;;;;7.25;2.55;;;21.40;78.50;;;;;;10339953;28;20133;-57
2023/08/03 12:48:28;;;;;;;9.13;2.05;;;21.40;78.40;;;;;;10336020;28;20080;-55
2023/08/03 12:53:28;;;;;;;4.30;1.73;;;21.40;78.40;;;;;;10343244;28;20108;-58
2023/08/03 12:58:29;;;;;;;11.15;2.00;;;21.40;78.30;;;;;;10343223;28;20033;-57
2023/08/03 13:03:30;;;;;;;6.45;2.08;;;21.40;78.30;;;;;;10334829;28;20065;-57
2023/08/03 13:08:30;;;;;;;6.80;2.30;;;21.40;78.20;;;;;;10339778;28;20469;-57
2023/08/03 13:13:31;;;;;;;8.35;2.38;;;21.40;78.70;;;;;;10363879;28;20032;-57
2023/08/03 13:18:32;;;;;;;4.57;2.00;;;21.40;78.20;;;;;;10355876;28;20097;-57
2023/08/03 13:23:33;;;;;;;3.83;1.80;;;21.30;78.20;;;;;;10351609;28;20113;-57
2023/08/03 13:28:34;;;;;;;8.18;2.10;;;21.40;78.20;;;;;;10334258;28;20689;-57
2023/08/03 13:33:34;;;;;;;3.42;1.65;;;21.40;78.20;;;;;;10352394;28;20022;-58
2023/08/03 13:38:35;;;;;;;6.30;1.60;;;21.40;78.00;;;;;;10359773;28;20450;-57
2023/08/03 13:43:37;;;;;;;6.90;1.40;;;21.30;78.10;;;;;;10363694;28;20457;-55
2023/08/03 13:48:38;;;;;;;3.83;1.25;;;21.40;78.20;;;;;;10364972;28;20034;-57
2023/08/03 13:53:39;;;;;;;9.05;1.98;;;21.40;78.20;;;;;;10360822;28;20109;-57
2023/08/03 13:58:39;;;;;;;14.95;2.70;;;21.40;78.20;;;;;;10351477;28;20106;-58
2023/08/03 14:03:40;;;;;;;8.35;2.05;;;21.50;78.50;;;;;;10325170;28;20060;-56
2023/08/03 14:08:41;;;;;;;13.43;2.28;;;21.50;78.50;;;;;;10332098;28;20109;-56
2023/08/03 14:13:41;;;;;;;12.18;2.10;;;21.60;78.00;;;;;;10327254;28;20109;-57
2023/08/03 14:18:42;;;;;;;12.45;3.47;;;21.50;78.20;;;;;;10366112;28;20028;-57
2023/08/03 14:23:43;;;;;;;11.77;3.13;;;21.50;78.40;;;;;;10350975;28;20117;-57
2023/08/03 14:28:43;;;;;;;21.45;3.60;;;21.50;78.70;;;;;;10325372;28;20084;-57
2023/08/03 14:33:44;;;;;;;19.02;2.47;;;21.50;78.90;;;;;;10327943;28;20038;-57
2023/08/03 14:38:45;;;;;;;20.30;3.40;;;21.50;78.90;;;;;;10333938;28;20315;-56
2023/08/03 14:43:48;;;;;;;19.58;3.65;;;21.50;79.00;;;;;;10324516;28;20489;-56
2023/08/03 14:48:48;;;;;;;9.48;2.20;;;21.50;79.20;;;;;;10322751;28;20018;-57
2023/08/03 14:53:49;;;;;;;11.27;3.38;;;21.50;79.00;;;;;;10298042;28;20110;-57
2023/08/03 14:58:49;;;;;;;10.65;2.55;;;21.50;79.00;;;;;;10323512;28;20117;-57
2023/08/03 15:03:50;;;;;;;16.30;2.78;;;21.50;79.00;;;;;;10310062;28;20113;-55
2023/08/03 15:08:53;;;;;;;18.52;2.80;;;21.50;79.00;;;;;;10283345;28;20015;-57
2023/08/03 15:13:54;;;;;;;23.90;3.47;;;21.70;78.00;;;;;;10299416;28;20034;-56
2023/08/03 15:18:55;;;;;;;12.52;1.90;;;21.70;77.60;;;;;;10315225;28;20050;-56
2023/08/03 15:23:57;;;;;;;10.95;4.30;;;21.70;77.00;;;;;;10315936;28;20378;-57
2023/08/03 15:28:58;;;;;;;7.82;2.65;;;21.80;77.30;;;;;;10316380;28;20081;-56
2023/08/03 15:33:59;;;;;;;22.40;5.72;;;21.80;77.00;;;;;;10289474;28;20494;-56
2023/08/03 15:38:59;;;;;;;6.90;2.40;;;21.80;77.70;;;;;;10304245;28;20485;-56
2023/08/03 15:44:02;;;;;;;10.13;2.78;;;21.80;76.80;;;;;;10362512;28;20109;-54
2023/08/03 15:49:02;;;;;;;5.88;2.00;;;21.90;76.00;;;;;;10355825;28;20022;-56
2023/08/03 15:54:05;;;;;;;21.25;2.63;;;21.90;76.90;;;;;;10346554;28;20101;-57
2023/08/03 15:59:06;;;;;;;6.00;1.40;;;22.00;78.30;;;;;;10323292;28;20025;-57
2023/08/03 16:04:07;;;;;;;4.15;1.35;;;22.00;77.30;;;;;;10335565;28;20033;-56
2023/08/03 16:09:07;;;;;;;6.15;1.80;;;22.00;76.50;;;;;;10321310;28;20130;-56
2023/08/03 16:14:08;;;;;;;7.95;2.20;;;21.90;75.90;;;;;;10321614;28;20041;-56
2023/08/03 16:19:09;;;;;;;4.50;1.67;;;21.90;75.90;;;;;;10344764;28;20109;-53
2023/08/03 16:24:10;;;;;;;4.72;1.38;;;22.00;75.90;;;;;;10328797;28;20048;-57
2023/08/03 16:29:10;;;;;;;7.25;1.63;;;22.00;76.20;;;;;;10329235;28;20052;-54
2023/08/03 16:34:11;;;;;;;9.32;1.98;;;22.00;76.30;;;;;;10331233;28;20034;-57
2023/08/03 16:39:14;;;;;;;10.60;1.88;;;21.80;76.50;;;;;;10351180;28;20054;-59
2023/08/03 16:44:15;;;;;;;7.97;1.90;;;21.70;77.00;;;;;;10351719;28;20022;-56
2023/08/03 16:49:17;;;;;;;6.63;2.88;;;21.70;77.20;;;;;;10350163;28;20096;-58
2023/08/03 16:54:18;;;;;;;13.35;2.85;;;21.70;77.00;;;;;;10368601;28;20022;-56
2023/08/03 16:59:18;;;;;;;13.13;2.65;;;21.60;76.90;;;;;;10360967;28;20121;-57
2023/08/03 17:04:19;;;;;;;8.45;2.42;;;21.60;76.90;;;;;;10366501;28;20034;-57
2023/08/03 17:09:20;;;;;;;10.32;2.83;;;21.70;76.90;;;;;;10369306;28;20101;-56
2023/08/03 17:14:23;;;;;;;10.00;2.95;;;21.70;77.60;;;;;;10361828;28;20018;-56
2023/08/03 17:19:24;;;;;;;14.20;2.88;;;21.60;77.50;;;;;;10327543;28;20501;-56
2023/08/03 17:24:25;;;;;;;15.52;3.03;;;21.60;77.40;;;;;;10328033;28;20050;-56
2023/08/03 17:29:25;;;;;;;9.77;2.33;;;21.60;77.40;;;;;;10349257;28;20030;-55
2023/08/03 17:34:26;;;;;;;12.00;2.60;;;21.60;77.10;;;;;;10367318;28;20533;-56
2023/08/03 17:39:27;;;;;;;10.13;2.10;;;21.70;77.00;;;;;;10366583;28;20057;-57
2023/08/03 17:44:28;;;;;;;6.85;2.00;;;21.70;77.00;;;;;;10366031;28;20636;-56
2023/08/03 17:49:30;;;;;;;8.43;2.40;;;21.70;77.00;;;;;;10366432;28;20314;-54
2023/08/03 17:54:37;;;;;;;5.18;2.10;;;21.70;76.60;;;;;;10363826;28;20440;-56
2023/08/03 17:59:38;;;;;;;10.02;2.95;;;21.70;76.60;;;;;;10361221;28;20487;-56
2023/08/03 18:04:38;;;;;;;5.10;2.03;;;21.70;76.90;;;;;;10363036;28;20110;-56
2023/08/03 18:09:39;;;;;;;6.97;2.25;;;21.60;77.10;;;;;;10346713;28;20469;-56
2023/08/03 18:14:40;;;;;;;7.43;1.70;;;21.50;77.40;;;;;;10350505;28;20026;-56
2023/08/03 18:19:40;;;;;;;4.80;2.03;;;21.40;77.60;;;;;;10363606;28;20117;-58
2023/08/03 18:24:46;;;;;;;6.85;1.85;;;21.40;77.40;;;;;;10362961;28;20030;-56
2023/08/03 18:29:46;;;;;;;14.63;2.28;;;21.50;77.20;;;;;;10364058;28;20032;-55
2023/08/03 18:34:48;;;;;;;7.30;2.10;;;21.50;77.30;;;;;;10365369;28;20099;-56
2023/08/03 18:39:48;;;;;;;5.90;1.75;;;21.50;77.10;;;;;;10363616;28;20073;-56
2023/08/03 18:44:49;;;;;;;8.48;2.53;;;21.50;76.90;;;;;;10324503;28;20038;-55
2023/08/03 18:49:50;;;;;;;5.18;1.52;;;21.50;76.80;;;;;;10323899;28;20027;-56
2023/08/03 18:54:50;;;;;;;5.15;2.13;;;21.50;76.90;;;;;;10347635;28;20133;-56
2023/08/03 18:59:51;;;;;;;7.28;2.75;;;21.40;76.70;;;;;;10343938;28;20095;-56
2023/08/03 19:04:51;;;;;;;5.10;2.10;;;21.40;77.10;;;;;;10325780;28;20097;-56
2023/08/03 19:09:52;;;;;;;5.13;1.38;;;21.30;77.20;;;;;;10362071;28;20049;-55
2023/08/03 19:14:53;;;;;;;6.13;1.75;;;21.30;77.00;;;;;;10340233;28;20116;-56
2023/08/03 19:19:53;;;;;;;5.20;1.90;;;21.30;76.90;;;;;;10354901;28;20062;-56
2023/08/03 19:24:54;;;;;;;2.70;1.50;;;21.20;77.20;;;;;;10344255;28;20014;-56
2023/08/03 19:29:55;;;;;;;5.68;1.98;;;21.20;76.70;;;;;;10364219;28;20096;-56
2023/08/03 19:34:55;;;;;;;5.57;2.22;;;21.20;77.00;;;;;;10360547;28;20057;-56
2023/08/03 19:39:56;;;;;;;4.55;1.60;;;21.20;77.00;;;;;;10360190;28;20084;-56
2023/08/03 19:44:57;;;;;;;8.13;1.95;;;21.20;77.00;;;;;;10358628;28;20133;-56
2023/08/03 19:49:57;;;;;;;3.53;1.30;;;21.20;76.90;;;;;;10360706;28;20097;-56
2023/08/03 19:54:58;;;;;;;4.32;1.75;;;21.20;76.80;;;;;;10355849;28;20785;-56
2023/08/03 19:59:59;;;;;;;6.10;1.85;;;21.20;76.70;;;;;;10323507;28;20544;-55
2023/08/03 20:05:02;;;;;;;3.55;1.70;;;21.10;76.70;;;;;;10323719;28;20027;-55
2023/08/03 20:10:03;;;;;;;3.33;1.77;;;21.10;76.60;;;;;;10323999;28;20099;-57
2023/08/03 20:15:06;;;;;;;3.60;1.90;;;21.10;76.70;;;;;;10318565;28;20384;-56
2023/08/03 20:20:07;;;;;;;3.53;1.83;;;21.10;76.70;;;;;;10364016;28;20026;-56
2023/08/03 20:25:08;;;;;;;3.47;1.88;;;21.10;76.60;;;;;;10364071;28;20076;-56
2023/08/03 20:30:09;;;;;;;3.47;1.40;;;21.10;76.50;;;;;;10339208;28;20015;-56
2023/08/03 20:35:09;;;;;;;4.45;1.67;;;21.10;76.60;;;;;;10323579;28;20027;-55
2023/08/03 20:40:11;;;;;;;2.67;1.20;;;21.00;76.50;;;;;;10323220;28;20042;-56
2023/08/03 20:45:12;;;;;;;5.43;1.52;;;21.00;76.50;;;;;;10323423;28;20525;-56
2023/08/03 20:50:12;;;;;;;3.58;1.38;;;21.00;76.50;;;;;;10322958;28;20061;-56
2023/08/03 20:55:13;;;;;;;3.33;1.50;;;21.00;76.50;;;;;;10334728;28;20030;-56
2023/08/03 21:00:14;;;;;;;1.90;1.42;;;21.00;76.50;;;;;;10322478;28;20035;-56
2023/08/03 21:05:18;;;;;;;4.63;1.50;;;21.00;76.40;;;;;;10322577;28;20524;-56
2023/08/03 21:10:18;;;;;;;3.20;1.20;;;21.00;76.40;;;;;;10324545;28;20026;-56
2023/08/03 21:15:19;;;;;;;3.85;1.40;;;21.00;76.40;;;;;;10344681;28;20477;-56
2023/08/03 21:20:20;;;;;;;5.93;1.10;;;21.00;76.40;;;;;;10370574;28;20073;-56
2023/08/03 21:25:21;;;;;;;3.13;1.35;;;21.00;76.40;;;;;;10370035;28;20024;-56
2023/08/03 21:30:23;;;;;;;3.10;1.70;;;21.00;76.40;;;;;;10369625;28;20072;-56
2023/08/03 21:35:24;;;;;;;4.43;2.13;;;21.00;76.40;;;;;;10369832;28;20030;-56
2023/08/03 21:40:24;;;;;;;3.53;1.92;;;20.90;76.30;;;;;;10369570;28;20081;-56
2023/08/03 21:45:25;;;;;;;2.70;1.52;;;21.00;76.30;;;;;;10369062;28;20026;-56
2023/08/03 21:50:26;;;;;;;2.80;1.77;;;20.90;76.30;;;;;;10369551;28;20037;-56
2023/08/03 21:55:26;;;;;;;3.75;1.65;;;20.90;76.30;;;;;;10360101;28;20030;-56
2023/08/03 22:00:27;;;;;;;4.68;2.00;;;20.90;76.30;;;;;;10328810;28;20110;-56
2023/08/03 22:05:29;;;;;;;6.45;1.80;;;20.90;76.30;;;;;;10327506;28;20023;-56
2023/08/03 22:10:30;;;;;;;2.78;1.70;;;20.90;76.20;;;;;;10327245;28;20130;-56
2023/08/03 22:15:30;;;;;;;2.33;1.58;;;20.90;76.20;;;;;;10342696;28;20025;-56
2023/08/03 22:20:31;;;;;;;5.15;1.58;;;20.90;76.30;;;;;;10364684;28;20122;-56
2023/08/03 22:25:35;;;;;;;6.28;2.17;;;20.90;76.30;;;;;;10325896;28;20101;-56
2023/08/03 22:30:39;;;;;;;4.22;1.90;;;20.90;76.20;;;;;;10326477;28;20109;-56
2023/08/03 22:35:40;;;;;;;2.05;1.50;;;20.90;76.20;;;;;;10326892;28;20124;-56
2023/08/03 22:40:41;;;;;;;4.47;1.73;;;20.90;76.20;;;;;;10326299;28;20146;-56
2023/08/03 22:45:41;;;;;;;3.15;1.70;;;20.80;76.20;;;;;;10326619;28;20033;-56
2023/08/03 22:50:42;;;;;;;2.78;1.98;;;20.80;76.10;;;;;;10326534;28;20053;-56
2023/08/03 22:55:43;;;;;;;3.50;1.88;;;20.80;76.00;;;;;;10339465;28;20104;-56
2023/08/03 23:00:43;;;;;;;3.70;1.75;;;20.90;76.00;;;;;;10325780;28;20065;-55
2023/08/03 23:05:44;;;;;;;4.57;1.45;;;20.80;76.00;;;;;;10325532;28;20419;-56
2023/08/03 23:10:44;;;;;;;4.28;1.83;;;20.80;76.00;;;;;;10325496;28;20650;-56
2023/08/03 23:15:45;;;;;;;2.65;1.45;;;20.80;75.90;;;;;;10343431;28;20097;-56
2023/08/03 23:20:46;;;;;;;3.65;1.70;;;20.90;76.00;;;;;;10364691;28;20418;-56
2023/08/03 23:25:46;;;;;;;3.72;1.73;;;20.80;75.90;;;;;;10365816;28;20018;-56
2023/08/03 23:30:47;;;;;;;5.30;2.22;;;20.80;75.90;;;;;;10365562;28;20116;-56
2023/08/03 23:35:48;;;;;;;3.60;2.05;;;20.80;75.90;;;;;;10364573;28;20117;-56
2023/08/03 23:40:48;;;;;;;3.40;1.83;;;20.80;75.90;;;;;;10365069;28;20050;-56
2023/08/03 23:45:49;;;;;;;3.63;1.80;;;20.80;76.30;;;;;;10365037;28;20046;-56
2023/08/03 23:50:50;;;;;;;2.83;1.55;;;20.80;75.90;;;;;;10364681;28;20637;-55
2023/08/03 23:55:50;;;;;;;3.28;1.67;;;20.80;75.80;;;;;;10352221;28;20571;-56
